PAKH

Details ICAO PAKH (AKK)
Name Akhiok
Region USA (Alaska)
Timezone America/Anchorage (UTC-9.0)
Plans Departing 4
Arriving 3
Stats Elevation 50 ft / 15 m (AMSL)
Location 56.939202° -154.183135°
Runways 1
Magnetic Variation 14.198° E
Sunrise 2017-12-15 18:50:25 UTC / 2017-12-15 09:50:25 Local
Sunset 2017-12-16 01:36:32 UTC / 2017-12-15 16:36:32 Local
Advertisement - Login to hide

Runways

ID Width Length Bearing (true) Bearing (mag) Surface Threshold Offset Overrun Length
04 60 ft / 18 m 3,063 ft / 934 m 60.99° 46.79° Gravel 0 ft / 0 m 0 ft / 0 m
22 60 ft / 18 m 3,063 ft / 934 m 241.01° 226.81° Gravel 0 ft / 0 m 0 ft / 0 m

Map

Weather


0- 5 10 15 20 25 30 35+ Temperature / ° C

Clouds and Precipitation
Forecast for 2017-12-15 12:00 UTC. Updated an hour ago

Ground ~20,000 ft ~40,000 ft Winds

METAR

PAKH 151156Z AUTO 13020G26KT 10SM FEW022 BKN029 OVC034 04/01 A2949 RMK AO2 PK WND 13031/1137 PRESFR SLP989 60000 T00390011 10039 20022 58040 $

TAF

Not found
Warning: Do not use this data for real-world aviation or navigation. No guarantee of current accuracy is given.